Time;durP1;ratioP1;P1;durP2;ratioP2;P2;SDS_P1;SDS_P2;PMS_P1;PMS_P2;Temp;Humidity;BMP_temperature;BMP_pressure;BME280_temperature;BME280_humidity;BME280_pressure;Samples;Min_cycle;Max_cycle;Signal;HPM_P1;HPM_P2
2022/10/18 00:02:15;;;;;;;24.25;9.15;;;;;;;16.32;88.00;100839.56;5012678;28;20049;-89
2022/10/18 00:04:42;;;;;;;22.77;8.55;;;;;;;16.33;87.59;100844.75;5011167;28;20502;-86
2022/10/18 00:07:08;;;;;;;24.20;7.85;;;;;;;16.35;87.69;100850.81;5025893;28;20057;-88
2022/10/18 00:09:35;;;;;;;13.10;7.65;;;;;;;16.36;87.47;100847.16;5017621;28;20504;-89
2022/10/18 00:12:02;;;;;;;29.13;8.43;;;;;;;16.37;87.15;100848.00;5018270;28;22675;-89
2022/10/18 00:14:29;;;;;;;30.20;8.75;;;;;;;16.34;87.22;100851.00;5018509;28;20057;-90
2022/10/18 00:16:56;;;;;;;26.10;8.48;;;;;;;16.33;87.01;100849.28;5020357;28;20050;-90
2022/10/18 00:19:22;;;;;;;20.92;8.77;;;;;;;16.36;86.69;100852.53;4991609;28;20080;-90
2022/10/18 00:21:54;;;;;;;19.85;7.97;;;;;;;16.32;87.00;100851.13;4995788;28;20410;-89
2022/10/18 00:24:20;;;;;;;19.15;9.00;;;;;;;16.32;86.77;100850.28;4998656;28;20500;-90
2022/10/18 00:26:47;;;;;;;15.75;7.78;;;;;;;16.25;87.15;100860.75;5002181;28;20451;-90
2022/10/18 00:29:15;;;;;;;21.08;8.18;;;;;;;16.23;87.01;100852.00;5003195;28;20046;-89
2022/10/18 00:31:42;;;;;;;19.92;7.90;;;;;;;16.21;87.19;100857.53;5007707;28;20107;-89
2022/10/18 00:34:11;;;;;;;20.45;7.85;;;;;;;16.14;87.18;100859.09;5001009;28;20556;-89
2022/10/18 00:36:38;;;;;;;24.48;7.82;;;;;;;16.16;87.18;100850.94;5003927;28;20435;-90
2022/10/18 00:39:06;;;;;;;23.52;7.90;;;;;;;16.18;87.07;100855.16;4972132;28;20112;-87
2022/10/18 00:41:34;;;;;;;21.08;7.82;;;;;;;16.14;87.06;100853.75;5011246;28;20084;-88
2022/10/18 00:44:12;;;;;;;20.10;7.78;;;;;;;16.12;86.91;100850.34;4977454;28;20053;-89
2022/10/18 00:46:40;;;;;;;18.13;8.50;;;;;;;16.09;87.19;100850.66;5014404;28;20042;-88
2022/10/18 00:49:20;;;;;;;25.15;7.97;;;;;;;15.97;86.68;100851.81;4991094;28;20060;-89
2022/10/18 00:51:47;;;;;;;15.77;8.18;;;;;;;16.12;87.23;100849.50;4985698;28;20493;-89
2022/10/18 00:54:15;;;;;;;20.60;8.32;;;;;;;16.14;87.29;100850.22;5023654;28;20120;-89
2022/10/18 00:56:43;;;;;;;24.48;8.32;;;;;;;16.13;87.43;100851.19;4999285;28;20087;-90
2022/10/18 00:59:13;;;;;;;19.73;8.40;;;;;;;16.11;87.32;100848.69;5005775;28;20045;-90
2022/10/18 01:01:39;;;;;;;23.15;8.50;;;;;;;16.16;87.56;100848.25;4992185;28;20112;-87
2022/10/18 01:04:06;;;;;;;19.60;7.43;;;;;;;16.13;87.86;100852.06;5002267;28;20140;-89
2022/10/18 01:07:04;;;;;;;20.58;7.93;;;;;;;16.07;87.68;100844.59;5011359;28;20041;-90
2022/10/18 01:10:00;;;;;;;16.50;7.50;;;;;;;15.94;88.31;100850.28;4990432;28;20054;-88
2022/10/18 01:12:42;;;;;;;20.73;7.50;;;;;;;16.12;88.41;100849.50;4995659;28;20049;-89
2022/10/18 01:15:28;;;;;;;14.85;7.72;;;;;;;15.99;88.59;100847.16;5002179;28;20501;-89
2022/10/18 01:17:55;;;;;;;14.85;8.73;;;;;;;16.18;88.29;100851.59;5018460;28;20466;-89
2022/10/18 01:20:57;;;;;;;17.15;7.95;;;;;;;16.05;88.30;100850.13;5005887;28;20053;-90
2022/10/18 01:23:39;;;;;;;18.67;7.57;;;;;;;16.15;87.76;100852.72;4946269;28;20129;-89
2022/10/18 01:26:27;;;;;;;29.20;7.82;;;;;;;16.18;87.77;100848.91;4995660;28;20096;-89
2022/10/18 01:28:54;;;;;;;18.85;7.85;;;;;;;16.20;87.76;100850.47;5011254;28;20065;-89
2022/10/18 01:31:22;;;;;;;25.70;8.95;;;;;;;16.18;87.51;100847.09;5002285;28;20096;-89
2022/10/18 01:33:52;;;;;;;20.05;8.63;;;;;;;16.16;87.08;100856.28;5021121;28;20045;-90
2022/10/18 01:36:33;;;;;;;24.17;8.88;;;;;;;16.04;87.61;100851.09;4975110;28;20133;-89
2022/10/18 01:39:05;;;;;;;27.70;8.63;;;;;;;16.15;87.33;100844.69;4953495;28;20047;-90
2022/10/18 01:41:33;;;;;;;15.00;7.93;;;;;;;16.18;87.09;100848.91;5005624;28;20492;-89
2022/10/18 01:44:02;;;;;;;32.05;8.93;;;;;;;16.16;87.21;100845.56;4971547;28;20383;-90
2022/10/18 01:46:29;;;;;;;26.10;8.65;;;;;;;16.16;87.75;100840.22;5015532;28;20054;-90
2022/10/18 01:48:56;;;;;;;23.35;8.40;;;;;;;16.17;87.97;100842.72;4985215;28;20053;-86
2022/10/18 01:51:25;;;;;;;28.00;8.95;;;;;;;16.16;87.98;100843.72;5016505;28;20037;-89
2022/10/18 01:53:51;;;;;;;23.83;9.15;;;;;;;16.18;87.92;100844.44;4993250;28;20489;-89
2022/10/18 01:56:39;;;;;;;21.20;9.40;;;;;;;16.02;88.29;100834.31;4970462;28;20096;-89
2022/10/18 01:59:38;;;;;;;21.42;8.63;;;;;;;15.97;88.75;100836.59;4975048;28;20793;-88
2022/10/18 02:02:23;;;;;;;24.08;8.45;;;;;;;15.99;88.79;100826.56;5004442;28;20123;-89
2022/10/18 02:05:00;;;;;;;21.52;8.52;;;;;;;16.04;88.69;100831.50;5012888;28;20046;-90
2022/10/18 02:07:47;;;;;;;21.55;8.55;;;;;;;16.01;89.34;100821.09;5016414;28;20494;-90
2022/10/18 02:10:37;;;;;;;25.75;9.43;;;;;;;16.08;88.43;100818.63;4980436;28;20462;-89
2022/10/18 02:13:04;;;;;;;22.98;8.75;;;;;;;16.12;88.68;100818.19;5001951;28;20049;-89
2022/10/18 02:15:36;;;;;;;19.45;8.57;;;;;;;16.11;88.78;100821.88;4996430;28;20497;-88
2022/10/18 02:18:07;;;;;;;15.85;7.47;;;;;;;16.08;89.18;100815.97;5004874;28;20050;-89
2022/10/18 02:20:35;;;;;;;22.38;9.45;;;;;;;16.14;88.82;100820.75;5000352;28;20489;-88
2022/10/18 02:23:03;;;;;;;23.38;9.18;;;;;;;16.17;88.57;100815.09;5003941;28;20061;-88
2022/10/18 02:25:30;;;;;;;18.38;8.35;;;;;;;16.14;88.74;100818.91;4974208;28;20558;-87
2022/10/18 02:27:57;;;;;;;28.30;8.88;;;;;;;16.15;88.77;100817.06;4962982;28;20046;-89
2022/10/18 02:30:30;;;;;;;23.60;9.25;;;;;;;16.03;89.03;100811.06;4985314;28;20046;-89
2022/10/18 02:33:17;;;;;;;25.20;8.93;;;;;;;15.96;88.95;100805.44;5019318;28;20060;-89
2022/10/18 02:35:46;;;;;;;23.13;8.52;;;;;;;16.15;88.52;100812.53;4996073;28;20124;-89
2022/10/18 02:38:14;;;;;;;28.05;8.77;;;;;;;16.11;88.99;100796.94;4985101;28;20052;-88
2022/10/18 02:40:41;;;;;;;16.05;8.45;;;;;;;16.15;88.89;100798.31;5001038;28;20044;-88
2022/10/18 02:43:07;;;;;;;29.50;9.90;;;;;;;16.11;89.11;100794.25;4992539;28;20128;-89
2022/10/18 02:45:34;;;;;;;25.05;9.00;;;;;;;16.10;89.67;100788.03;5013215;28;20125;-89
2022/10/18 02:48:01;;;;;;;17.23;8.23;;;;;;;16.13;89.53;100800.28;4976113;28;20077;-88
2022/10/18 02:50:27;;;;;;;19.75;9.02;;;;;;;16.09;89.66;100791.72;5007178;28;20433;-88
2022/10/18 02:52:54;;;;;;;21.42;8.50;;;;;;;16.11;89.54;100787.06;4994951;28;20496;-86
2022/10/18 02:55:21;;;;;;;26.42;8.27;;;;;;;16.09;89.64;100785.50;4994598;28;20135;-88
2022/10/18 02:57:47;;;;;;;26.40;8.45;;;;;;;16.16;89.31;100783.94;5016561;28;20388;-89
2022/10/18 03:00:14;;;;;;;18.45;9.20;;;;;;;16.11;89.69;100791.56;5006520;28;20038;-86
2022/10/18 03:02:41;;;;;;;21.10;9.40;;;;;;;16.14;89.24;100788.59;5018391;28;20058;-89
2022/10/18 03:05:08;;;;;;;23.02;9.70;;;;;;;16.15;89.30;100787.59;5013661;28;20049;-89
2022/10/18 03:07:34;;;;;;;19.67;8.85;;;;;;;16.15;88.96;100787.59;4999101;28;20038;-89
2022/10/18 03:10:01;;;;;;;26.73;8.45;;;;;;;16.17;88.85;100790.97;5003237;28;20077;-89
2022/10/18 03:12:28;;;;;;;19.25;8.07;;;;;;;16.18;88.94;100789.97;4985456;28;20064;-88
2022/10/18 03:14:54;;;;;;;18.25;8.00;;;;;;;16.15;89.01;100793.78;5017601;28;20081;-90
2022/10/18 03:17:21;;;;;;;23.65;8.05;;;;;;;16.08;89.68;100798.06;4980813;28;20054;-89
2022/10/18 03:19:48;;;;;;;22.15;8.27;;;;;;;16.05;89.87;100801.91;4995517;28;20034;-88
2022/10/18 03:22:15;;;;;;;19.45;7.93;;;;;;;16.05;89.60;100795.66;4985574;28;20075;-90
2022/10/18 03:24:41;;;;;;;20.55;8.30;;;;;;;16.09;89.75;100801.59;4987799;28;20133;-90
2022/10/18 03:27:08;;;;;;;26.20;8.93;;;;;;;16.14;89.44;100804.66;5017918;28;20050;-88
2022/10/18 03:29:35;;;;;;;15.57;8.13;;;;;;;16.17;89.35;100805.19;5011250;28;20492;-89
2022/10/18 03:32:01;;;;;;;21.88;8.25;;;;;;;16.13;89.73;100805.63;5022745;28;20089;-88
2022/10/18 03:34:28;;;;;;;21.83;8.68;;;;;;;16.14;89.75;100800.16;4980709;28;20046;-88
2022/10/18 03:36:56;;;;;;;17.42;8.60;;;;;;;16.14;89.57;100799.31;5004684;28;20501;-88
2022/10/18 03:39:29;;;;;;;14.68;8.20;;;;;;;16.11;89.95;100795.09;5001469;28;20048;-89
2022/10/18 03:41:55;;;;;;;13.30;7.88;;;;;;;16.11;89.94;100797.78;4990720;28;20053;-89
2022/10/18 03:44:22;;;;;;;15.98;8.73;;;;;;;16.11;89.87;100795.09;5005713;28;20111;-88
2022/10/18 03:46:48;;;;;;;19.85;8.70;;;;;;;16.08;90.20;100802.56;5000097;28;20096;-90
2022/10/18 03:49:15;;;;;;;15.93;7.93;;;;;;;16.03;90.87;100809.22;4987157;28;20117;-89
2022/10/18 03:51:42;;;;;;;17.02;8.80;;;;;;;16.04;90.77;100804.72;5009351;28;20704;-89
2022/10/18 03:54:09;;;;;;;19.30;8.30;;;;;;;16.09;90.35;100807.78;5020696;28;20557;-89
2022/10/18 03:56:35;;;;;;;19.75;9.00;;;;;;;16.14;90.11;100810.03;5011371;28;20072;-89
2022/10/18 03:59:03;;;;;;;16.77;8.48;;;;;;;16.08;90.20;100805.25;4995126;28;20501;-91
2022/10/18 04:01:30;;;;;;;15.65;8.35;;;;;;;16.07;90.48;100807.09;4983322;28;20041;-90
2022/10/18 04:03:56;;;;;;;17.30;7.65;;;;;;;16.08;90.31;100802.56;5002064;28;20475;-89
2022/10/18 04:06:23;;;;;;;14.38;8.13;;;;;;;16.09;90.38;100804.28;5006760;28;22227;-89
2022/10/18 04:08:50;;;;;;;26.17;8.10;;;;;;;16.05;90.52;100801.03;5002750;28;20128;-88
2022/10/18 04:11:16;;;;;;;14.55;7.57;;;;;;;16.05;90.83;100795.66;5002107;28;20042;-88
2022/10/18 04:13:43;;;;;;;19.63;8.88;;;;;;;16.06;90.38;100800.06;4983958;28;20485;-88
2022/10/18 04:16:10;;;;;;;26.10;10.15;;;;;;;16.09;90.52;100806.94;4999311;28;20048;-89
2022/10/18 04:18:37;;;;;;;23.65;8.98;;;;;;;16.12;90.26;100802.13;5012885;28;20050;-90
2022/10/18 04:21:03;;;;;;;16.67;10.05;;;;;;;16.12;90.45;100806.66;4986877;28;20080;-88
2022/10/18 04:23:30;;;;;;;22.05;8.52;;;;;;;16.14;90.31;100804.66;5024591;28;20045;-88
2022/10/18 04:26:01;;;;;;;20.63;9.40;;;;;;;16.15;89.62;100807.19;5008775;28;20149;-88
2022/10/18 04:28:28;;;;;;;20.02;8.63;;;;;;;16.17;89.55;100818.59;5003940;28;20111;-88
2022/10/18 04:30:55;;;;;;;15.15;8.95;;;;;;;16.20;89.46;100814.78;5001557;28;20516;-89
2022/10/18 04:33:24;;;;;;;20.33;8.70;;;;;;;16.14;90.21;100820.75;5002960;28;20042;-89
2022/10/18 04:35:52;;;;;;;25.63;9.43;;;;;;;16.08;90.88;100822.19;5017747;28;20061;-88
2022/10/18 04:38:19;;;;;;;25.13;10.05;;;;;;;16.07;91.41;100823.16;4994478;28;20046;-87
2022/10/18 04:40:46;;;;;;;18.27;8.55;;;;;;;16.06;91.41;100824.16;5023883;28;20463;-87
2022/10/18 04:43:13;;;;;;;18.15;9.30;;;;;;;16.05;91.37;100823.31;5025890;28;20048;-89
2022/10/18 04:45:39;;;;;;;19.05;8.57;;;;;;;16.04;91.27;100818.94;5007961;28;20057;-88
2022/10/18 04:48:06;;;;;;;26.92;9.65;;;;;;;16.05;91.53;100827.81;5007025;28;20073;-89
2022/10/18 04:50:33;;;;;;;20.38;9.18;;;;;;;16.04;91.22;100831.50;5009931;28;20037;-89
2022/10/18 04:52:59;;;;;;;20.38;9.13;;;;;;;16.12;90.74;100834.28;4991224;28;20098;-89
2022/10/18 04:55:26;;;;;;;16.80;8.80;;;;;;;16.09;90.90;100829.22;5005636;28;20096;-90
2022/10/18 04:57:53;;;;;;;17.30;9.10;;;;;;;16.09;90.88;100823.03;5005742;28;20121;-89
2022/10/18 05:00:19;;;;;;;21.35;8.60;;;;;;;16.07;91.20;100828.50;5008776;28;20627;-91
2022/10/18 05:02:46;;;;;;;23.80;9.32;;;;;;;16.06;91.38;100825.00;5005317;28;20520;-89
2022/10/18 05:05:13;;;;;;;14.75;8.52;;;;;;;16.05;91.38;100823.31;5004065;28;20551;-90
2022/10/18 05:07:40;;;;;;;16.70;9.20;;;;;;;16.02;91.60;100831.63;5004256;28;20489;-90
2022/10/18 05:10:07;;;;;;;18.67;8.73;;;;;;;16.02;91.31;100830.78;4990538;28;20051;-90
2022/10/18 05:12:34;;;;;;;23.30;8.60;;;;;;;16.04;90.96;100828.81;4987011;28;20045;-91
2022/10/18 05:15:00;;;;;;;16.80;8.90;;;;;;;16.06;90.61;100825.00;5012462;28;20112;-86
2022/10/18 05:17:27;;;;;;;21.70;8.90;;;;;;;16.09;90.37;100820.34;5000649;28;20520;-82
2022/10/18 05:19:54;;;;;;;20.75;8.65;;;;;;;16.04;90.48;100821.63;5007028;28;20129;-83
2022/10/18 05:22:21;;;;;;;15.63;7.97;;;;;;;16.00;90.63;100820.25;5019380;28;20386;-83
2022/10/18 05:24:47;;;;;;;17.45;8.88;;;;;;;15.96;90.41;100812.63;5004928;28;20053;-82
2022/10/18 05:27:14;;;;;;;24.00;8.15;;;;;;;15.93;90.45;100815.63;5019142;28;20054;-83
2022/10/18 05:29:41;;;;;;;17.27;7.70;;;;;;;15.87;90.55;100816.19;5000932;28;20412;-84
2022/10/18 05:32:07;;;;;;;17.60;8.43;;;;;;;15.86;90.03;100812.66;5022457;28;20076;-83
2022/10/18 05:34:34;;;;;;;21.30;9.18;;;;;;;15.84;90.02;100812.81;5028025;28;20049;-83
2022/10/18 05:37:01;;;;;;;18.30;8.68;;;;;;;15.87;89.79;100818.88;5021095;28;20104;-84
2022/10/18 05:39:27;;;;;;;16.10;7.90;;;;;;;15.82;90.02;100820.16;5017030;28;20050;-83
2022/10/18 05:41:54;;;;;;;25.13;9.23;;;;;;;15.81;90.35;100814.94;5016532;28;20061;-84
2022/10/18 05:44:21;;;;;;;18.90;7.97;;;;;;;15.83;90.04;100810.28;5005135;28;20140;-84
2022/10/18 05:46:47;;;;;;;15.02;8.02;;;;;;;15.80;89.96;100814.09;5019116;28;20489;-83
2022/10/18 05:49:14;;;;;;;18.50;7.88;;;;;;;15.75;90.74;100807.50;5023307;28;20500;-83
2022/10/18 05:51:41;;;;;;;17.98;8.05;;;;;;;15.80;90.10;100808.75;5035843;28;20045;-84
2022/10/18 05:54:10;;;;;;;19.73;8.40;;;;;;;15.76;90.17;100804.66;5005241;28;20727;-84
2022/10/18 05:56:37;;;;;;;21.85;9.63;;;;;;;15.83;90.10;100815.66;5020749;28;20046;-84
2022/10/18 05:59:10;;;;;;;15.98;8.50;;;;;;;15.79;90.31;100816.91;4995323;28;20080;-83
2022/10/18 06:01:39;;;;;;;18.77;10.13;;;;;;;15.83;89.86;100819.16;5014136;28;20100;-83
2022/10/18 06:04:05;;;;;;;16.67;9.35;;;;;;;15.82;89.86;100820.16;4988036;28;20080;-83
2022/10/18 06:06:32;;;;;;;22.00;8.63;;;;;;;15.80;90.30;100818.63;4996903;28;20456;-84
2022/10/18 06:08:59;;;;;;;16.10;8.95;;;;;;;15.82;90.36;100821.97;4997336;28;20479;-83
2022/10/18 06:11:25;;;;;;;18.63;8.38;;;;;;;15.83;90.61;100831.72;5016248;28;20393;-83
2022/10/18 06:13:52;;;;;;;25.02;9.43;;;;;;;15.82;90.81;100820.16;5010060;28;20444;-84
2022/10/18 06:16:21;;;;;;;18.20;8.38;;;;;;;15.79;90.95;100820.44;5026085;28;20048;-84
2022/10/18 06:18:52;;;;;;;18.13;8.93;;;;;;;15.81;91.32;100823.81;5012465;28;20049;-84
2022/10/18 06:21:19;;;;;;;24.95;9.15;;;;;;;15.82;91.50;100822.84;5012950;28;20124;-84
2022/10/18 06:23:49;;;;;;;21.25;8.65;;;;;;;15.80;91.40;100824.81;5007324;28;20477;-83
2022/10/18 06:26:16;;;;;;;20.83;9.40;;;;;;;15.86;91.69;100820.69;5012429;28;20067;-83
2022/10/18 06:28:43;;;;;;;19.17;8.05;;;;;;;15.88;91.82;100820.56;5022505;28;20073;-84
2022/10/18 06:31:11;;;;;;;19.77;9.18;;;;;;;15.90;91.55;100829.28;5003126;28;20488;-84
2022/10/18 06:33:37;;;;;;;23.02;9.15;;;;;;;15.91;91.60;100831.81;5006166;28;20052;-83
2022/10/18 06:36:10;;;;;;;24.30;9.50;;;;;;;15.87;91.58;100824.22;4997493;28;20053;-83
2022/10/18 06:38:37;;;;;;;;;;;;;;;15.66;93.02;100833.25;5000135;28;20045;-84
2022/10/18 06:41:05;;;;;;;23.58;9.40;;;;;;;15.92;91.52;100827.31;5025799;28;19983;-83
2022/10/18 06:43:31;;;;;;;17.80;9.70;;;;;;;15.96;91.23;100831.38;5016654;28;20052;-83
2022/10/18 06:45:59;;;;;;;24.70;9.65;;;;;;;15.95;91.16;100838.59;4990352;28;20102;-83
2022/10/18 06:48:26;;;;;;;26.73;9.93;;;;;;;15.94;91.40;100834.22;5028312;28;20072;-83
2022/10/18 06:51:02;;;;;;;21.35;9.50;;;;;;;15.87;91.98;100840.28;5009565;28;20115;-84
2022/10/18 06:53:31;;;;;;;20.38;9.98;;;;;;;15.93;91.92;100837.88;5000297;28;20100;-83
2022/10/18 06:56:03;;;;;;;22.10;10.57;;;;;;;15.98;91.50;100840.13;5020133;28;20443;-83
2022/10/18 06:58:29;;;;;;;21.60;9.68;;;;;;;16.00;91.78;100843.47;5004389;28;20045;-83
2022/10/18 07:00:57;;;;;;;20.17;10.50;;;;;;;15.99;91.89;100845.31;5001278;28;20075;-83
2022/10/18 07:03:25;;;;;;;23.30;10.05;;;;;;;15.98;92.37;100843.66;5018964;28;20045;-84
2022/10/18 07:05:51;;;;;;;25.00;10.38;;;;;;;16.03;92.01;100848.56;4998986;28;20053;-83
2022/10/18 07:08:18;;;;;;;22.67;9.80;;;;;;;15.99;92.70;100849.84;5032219;28;20142;-83
2022/10/18 07:10:52;;;;;;;22.42;9.43;;;;;;;15.94;92.35;100858.31;5021644;28;20049;-83
2022/10/18 07:13:19;;;;;;;21.65;10.75;;;;;;;16.01;92.43;100858.59;5008461;28;20519;-83
2022/10/18 07:16:09;;;;;;;23.48;9.85;;;;;;;15.97;92.30;100862.53;5003194;28;20099;-84
2022/10/18 07:18:48;;;;;;;20.55;11.10;;;;;;;15.98;91.99;100862.41;4997157;28;20050;-83
2022/10/18 07:21:20;;;;;;;20.98;9.40;;;;;;;16.00;92.26;100865.78;5015638;28;20057;-84
2022/10/18 07:23:47;;;;;;;38.25;10.30;;;;;;;16.02;92.35;100862.94;4992508;28;20492;-84
2022/10/18 07:26:22;;;;;;;23.35;9.60;;;;;;;15.97;92.14;100858.00;5015840;28;20120;-84
2022/10/18 07:28:54;;;;;;;21.75;9.82;;;;;;;16.04;92.35;100864.50;5004168;28;20041;-84
2022/10/18 07:31:21;;;;;;;20.35;9.63;;;;;;;16.06;92.26;100864.34;5001355;28;20615;-83
2022/10/18 07:33:48;;;;;;;25.80;10.05;;;;;;;16.10;91.55;100868.41;5007879;28;20049;-83
2022/10/18 07:36:15;;;;;;;20.30;10.43;;;;;;;16.11;91.60;100878.16;5023993;28;20045;-83
2022/10/18 07:38:41;;;;;;;28.30;12.63;;;;;;;16.15;91.14;100874.16;5021208;28;20452;-84
2022/10/18 07:41:10;;;;;;;27.63;10.93;;;;;;;16.13;91.49;100878.84;4994395;28;20093;-84
2022/10/18 07:43:40;;;;;;;33.70;12.30;;;;;;;16.13;91.53;100881.53;4999585;28;20049;-83
2022/10/18 07:46:07;;;;;;;27.33;11.10;;;;;;;16.16;91.49;100883.06;5018240;28;20574;-83
2022/10/18 07:48:33;;;;;;;30.58;11.65;;;;;;;16.17;91.15;100884.75;5013884;28;20083;-82
2022/10/18 07:51:01;;;;;;;22.25;10.88;;;;;;;16.16;91.14;100889.28;5028043;28;20064;-84
2022/10/18 07:53:28;;;;;;;27.67;11.48;;;;;;;16.16;91.56;100900.00;5023713;28;20104;-84
2022/10/18 07:55:58;;;;;;;21.35;11.55;;;;;;;16.17;92.10;100890.13;5006442;28;20048;-83
2022/10/18 07:58:30;;;;;;;26.83;10.98;;;;;;;16.20;92.00;100896.00;5020202;28;20106;-84
2022/10/18 08:01:01;;;;;;;25.77;11.40;;;;;;;16.19;91.86;100891.66;5013140;28;20669;-83
2022/10/18 08:03:27;;;;;;;31.75;10.65;;;;;;;16.19;92.31;100904.22;5007201;28;20056;-83
2022/10/18 08:05:54;;;;;;;20.27;11.48;;;;;;;16.21;92.17;100908.44;5005573;28;20059;-84
2022/10/18 08:08:22;;;;;;;27.48;12.38;;;;;;;16.21;91.88;100911.13;5024915;28;20040;-83
2022/10/18 08:10:49;;;;;;;26.13;11.25;;;;;;;16.23;92.11;100905.59;5018103;28;20104;-83
2022/10/18 08:13:16;;;;;;;29.38;11.65;;;;;;;16.23;92.42;100913.63;5028243;28;20065;-84
2022/10/18 08:15:42;;;;;;;22.75;12.63;;;;;;;16.24;92.60;100912.66;5013344;28;20149;-84
2022/10/18 08:18:10;;;;;;;19.73;10.85;;;;;;;16.30;92.24;100911.22;5022565;28;20107;-83
2022/10/18 08:20:44;;;;;;;26.58;11.20;;;;;;;16.24;92.83;100916.19;5016207;28;21619;-84
2022/10/18 08:23:11;;;;;;;23.13;10.88;;;;;;;16.27;92.59;100912.38;4997816;28;20041;-84
2022/10/18 08:25:37;;;;;;;21.77;10.98;;;;;;;16.31;92.62;100904.88;5024046;28;20045;-84
2022/10/18 08:28:04;;;;;;;16.67;10.63;;;;;;;16.30;92.56;100906.72;5021694;28;20057;-84
2022/10/18 08:30:31;;;;;;;27.80;11.32;;;;;;;16.30;92.61;100917.44;5010671;28;20373;-83
2022/10/18 08:32:58;;;;;;;29.65;11.50;;;;;;;16.30;92.97;100912.06;5021529;28;20073;-84
2022/10/18 08:35:24;;;;;;;25.13;10.95;;;;;;;16.32;93.04;100925.34;5003230;28;20467;-84
2022/10/18 08:37:51;;;;;;;24.80;11.05;;;;;;;16.30;92.69;100930.81;5010037;28;20099;-83
2022/10/18 08:40:19;;;;;;;27.23;12.73;;;;;;;16.27;93.31;100925.78;5023073;28;20476;-84
2022/10/18 08:42:56;;;;;;;21.80;10.90;;;;;;;16.22;93.95;100928.88;5034085;28;20081;-84
2022/10/18 08:45:25;;;;;;;23.88;11.57;;;;;;;16.27;93.79;100931.97;5019486;28;20041;-84
2022/10/18 08:48:17;;;;;;;32.03;13.10;;;;;;;16.19;94.06;100921.13;4991289;28;20045;-84
2022/10/18 08:50:45;;;;;;;21.17;11.63;;;;;;;16.27;94.00;100926.59;5002466;28;20063;-83
2022/10/18 08:53:55;;;;;;;23.15;12.85;;;;;;;16.17;95.07;100912.41;5013243;28;20100;-84
2022/10/18 08:56:23;;;;;;;25.20;13.27;;;;;;;16.34;93.95;100921.50;4925856;28;20137;-84
2022/10/18 08:58:50;;;;;;;30.52;13.25;;;;;;;16.38;93.93;100925.56;5027685;28;20447;-84
2022/10/18 09:01:35;;;;;;;30.00;13.93;;;;;;;16.30;94.52;100924.63;5019759;28;20523;-84
2022/10/18 09:04:02;;;;;;;26.58;14.77;;;;;;;16.40;94.19;100922.75;4997946;28;20068;-84
2022/10/18 09:06:55;;;;;;;29.30;14.20;;;;;;;16.43;94.21;100914.41;5036179;28;20087;-84
2022/10/18 09:09:40;;;;;;;30.30;13.77;;;;;;;16.42;94.59;100912.75;5021005;28;20130;-84
2022/10/18 09:12:34;;;;;;;24.40;13.60;;;;;;;16.42;94.85;100918.94;4983551;28;20042;-83
2022/10/18 09:15:34;;;;;;;28.35;13.75;;;;;;;16.45;94.94;100917.81;4974329;28;20057;-85
2022/10/18 09:18:31;;;;;;;25.30;12.98;;;;;;;16.44;95.49;100925.00;4958078;28;20049;-83
2022/10/18 09:21:00;;;;;;;28.77;13.20;;;;;;;16.58;94.51;100915.63;4966097;28;20041;-83
2022/10/18 09:23:32;;;;;;;29.38;14.55;;;;;;;16.57;94.87;100918.47;5014742;28;20057;-83
2022/10/18 09:26:17;;;;;;;26.02;14.25;;;;;;;16.58;95.36;100925.50;5027830;28;20061;-81
2022/10/18 09:28:59;;;;;;;30.35;12.88;;;;;;;16.59;95.39;100913.78;5005790;28;20045;-82
2022/10/18 09:31:49;;;;;;;34.17;14.30;;;;;;;16.55;95.99;100915.91;4999950;28;20068;-82
2022/10/18 09:34:30;;;;;;;31.25;14.80;;;;;;;16.64;95.58;100908.84;5004029;28;20666;-81
2022/10/18 09:36:58;;;;;;;27.92;13.45;;;;;;;16.76;95.62;100912.16;4987289;28;20057;-82
2022/10/18 09:39:30;;;;;;;26.35;13.20;;;;;;;16.78;95.74;100910.19;5030880;28;20049;-82
2022/10/18 09:42:02;;;;;;;28.27;14.48;;;;;;;16.82;95.84;100911.59;5021479;28;20042;-82
2022/10/18 09:44:37;;;;;;;28.65;15.60;;;;;;;16.83;97.27;100910.59;5017013;28;20523;-81
2022/10/18 09:47:20;;;;;;;36.50;16.70;;;;;;;16.79;99.53;100914.56;5017255;28;20148;-82
2022/10/18 09:49:51;;;;;;;36.78;14.55;;;;;;;16.90;97.17;100917.06;5003817;28;20045;-82
2022/10/18 09:52:22;;;;;;;25.30;14.93;;;;;;;16.93;97.45;100912.22;5012836;28;20083;-82
2022/10/18 09:54:54;;;;;;;26.80;13.60;;;;;;;16.96;97.48;100912.91;5029726;28;20037;-82
2022/10/18 09:57:34;;;;;;;33.22;16.08;;;;;;;17.01;98.21;100924.03;4988187;28;20057;-81
2022/10/18 10:00:03;;;;;;;24.75;13.38;;;;;;;17.04;97.72;100921.06;4974591;28;20456;-81
2022/10/18 10:02:30;;;;;;;37.63;17.85;;;;;;;17.09;98.44;100916.06;5015378;28;20374;-82
2022/10/18 10:04:57;;;;;;;23.35;13.40;;;;;;;17.09;98.63;100919.59;5011139;28;20374;-81
2022/10/18 10:07:32;;;;;;;30.85;15.82;;;;;;;17.09;98.33;100916.06;5020806;28;20582;-81
2022/10/18 10:10:20;;;;;;;37.03;16.23;;;;;;;17.04;99.28;100926.41;5007199;28;20408;-82
2022/10/18 10:12:48;;;;;;;31.10;15.10;;;;;;;17.13;98.69;100923.69;4989771;28;20049;-82
2022/10/18 10:15:25;;;;;;;21.33;14.02;;;;;;;17.11;98.79;100931.03;4998350;28;20044;-81
2022/10/18 10:18:16;;;;;;;27.08;15.25;;;;;;;17.17;99.32;100934.94;4996816;28;20128;-81
2022/10/18 10:20:50;;;;;;;24.98;12.57;;;;;;;17.20;99.33;100939.16;4993187;28;20056;-82
2022/10/18 10:23:36;;;;;;;25.08;13.60;;;;;;;17.18;99.95;100941.19;4987883;28;20045;-81
2022/10/18 10:26:05;;;;;;;21.40;12.68;;;;;;;17.29;100.00;100943.63;4977190;28;20096;-82
2022/10/18 10:28:36;;;;;;;15.80;9.30;;;;;;;17.31;99.44;100937.09;5020616;28;20046;-82
2022/10/18 10:31:26;;;;;;;18.70;11.35;;;;;;;17.29;100.00;100936.41;5019766;28;20038;-82
2022/10/18 10:34:12;;;;;;;16.92;9.43;;;;;;;17.32;100.00;100930.72;5014296;28;20060;-82
2022/10/18 10:36:50;;;;;;;19.90;9.73;;;;;;;17.38;100.00;100925.75;4978062;28;20096;-81
2022/10/18 10:39:18;;;;;;;13.68;8.88;;;;;;;17.48;100.00;100926.53;4985217;28;20053;-82
2022/10/18 10:41:53;;;;;;;19.48;10.45;;;;;;;17.50;100.00;100929.91;5010755;28;20095;-81
2022/10/18 10:44:22;;;;;;;14.18;8.38;;;;;;;17.60;100.00;100932.50;5002108;28;20138;-81
2022/10/18 10:46:49;;;;;;;16.00;9.82;;;;;;;17.67;100.00;100936.25;5017089;28;20068;-81
2022/10/18 10:49:21;;;;;;;19.45;8.00;;;;;;;17.69;100.00;100931.59;5023795;28;20057;-82
2022/10/18 10:52:16;;;;;;;13.57;7.55;;;;;;;17.71;99.87;100926.91;4969401;28;20518;-81
2022/10/18 10:54:56;;;;;;;13.70;8.70;;;;;;;17.78;99.83;100930.63;4969137;28;20512;-81
2022/10/18 10:57:31;;;;;;;14.55;7.55;;;;;;;17.84;99.35;100924.69;4989075;28;20443;-81
2022/10/18 10:59:58;;;;;;;14.15;9.20;;;;;;;17.88;99.69;100926.03;5012728;28;20048;-82
2022/10/18 11:02:30;;;;;;;19.55;9.38;;;;;;;17.88;99.81;100931.41;5020377;28;20048;-82
2022/10/18 11:05:18;;;;;;;15.90;10.30;;;;;;;17.83;99.46;100940.94;5013246;28;20400;-82
2022/10/18 11:07:45;;;;;;;19.95;10.65;;;;;;;17.96;99.39;100930.63;4963076;28;20045;-81
2022/10/18 11:10:18;;;;;;;19.02;10.30;;;;;;;17.94;98.79;100920.06;5025787;28;20068;-81
2022/10/18 11:12:45;;;;;;;;;;;;;;;17.84;100.00;100924.69;4992388;28;20098;-82
2022/10/18 11:15:35;;;;;;;21.65;10.88;;;;;;;18.02;99.06;100927.34;5017100;28;19957;-82
2022/10/18 11:18:24;;;;;;;17.40;9.95;;;;;;;18.07;98.43;100926.88;4991369;28;20046;-81
2022/10/18 11:20:57;;;;;;;21.20;10.98;;;;;;;18.07;99.13;100929.56;4984352;28;20501;-82
2022/10/18 11:23:29;;;;;;;14.45;9.13;;;;;;;18.05;98.42;100923.50;5009192;28;20542;-81
2022/10/18 11:26:11;;;;;;;16.08;10.00;;;;;;;18.00;98.44;100922.09;5019225;28;20045;-81
2022/10/18 11:29:14;;;;;;;15.32;9.30;;;;;;;17.96;99.28;100919.88;5028274;28;20045;-81
2022/10/18 11:31:58;;;;;;;23.08;12.00;;;;;;;17.99;100.00;100912.38;4937095;28;20038;-81
2022/10/18 11:34:25;;;;;;;15.93;9.40;;;;;;;18.07;99.47;100908.06;5020131;28;20056;-81